createdAt,value
2018-07-27T00:01:22.135Z,24.10
2018-07-27T00:06:24.616Z,24.00
2018-07-27T00:11:27.929Z,23.80
2018-07-27T00:16:30.488Z,23.80
2018-07-27T00:21:32.987Z,23.70
2018-07-27T00:26:35.484Z,23.60
2018-07-27T00:31:37.964Z,23.50
2018-07-27T00:36:40.709Z,23.50
2018-07-27T00:41:43.189Z,23.40
2018-07-27T00:46:45.694Z,23.30
2018-07-27T00:51:48.199Z,23.20
2018-07-27T00:56:50.688Z,23.10
2018-07-27T01:01:53.171Z,23.00
2018-07-27T01:06:55.691Z,23.00
2018-07-27T01:11:58.949Z,22.80
2018-07-27T01:17:01.505Z,22.80
2018-07-27T01:22:04.030Z,22.70
2018-07-27T01:27:06.541Z,22.70
2018-07-27T01:32:09.033Z,22.60
2018-07-27T01:37:11.534Z,22.50
2018-07-27T01:42:14.019Z,22.40
2018-07-27T01:47:16.527Z,22.40
2018-07-27T01:52:19.057Z,22.30
2018-07-27T01:57:22.323Z,22.20
2018-07-27T02:02:25.589Z,22.10
2018-07-27T02:07:28.077Z,22.10
2018-07-27T02:12:30.696Z,22.10
2018-07-27T02:17:33.186Z,22.00
2018-07-27T02:22:36.413Z,21.90
2018-07-27T02:27:39.664Z,21.80
2018-07-27T02:32:42.220Z,21.80
2018-07-27T02:37:44.722Z,21.70
2018-07-27T02:42:47.232Z,21.60
2018-07-27T02:47:49.723Z,21.60
2018-07-27T02:52:52.216Z,21.50
2018-07-27T02:57:55.477Z,21.40
2018-07-27T03:02:57.968Z,21.40
2018-07-27T03:08:00.874Z,21.30
2018-07-27T03:13:03.365Z,21.30
2018-07-27T03:18:05.893Z,21.20
2018-07-27T03:23:08.395Z,21.20
2018-07-27T03:28:10.905Z,21.20
2018-07-27T03:33:13.427Z,21.10
2018-07-27T03:38:16.322Z,21.10
2018-07-27T03:43:18.756Z,21.10
2018-07-27T03:48:21.323Z,21.00
2018-07-27T03:53:23.821Z,21.00
2018-07-27T03:58:27.144Z,20.90
2018-07-27T04:03:29.665Z,20.90
2018-07-27T04:08:32.179Z,20.90
2018-07-27T04:13:35.431Z,20.90
2018-07-27T04:18:37.929Z,20.90
2018-07-27T04:23:40.547Z,20.90
2018-07-27T04:28:43.029Z,20.80
2018-07-27T04:33:45.547Z,20.80
2018-07-27T04:38:48.823Z,20.90
2018-07-27T04:43:51.327Z,20.80
2018-07-27T04:48:53.830Z,20.90
2018-07-27T04:53:56.348Z,20.90
2018-07-27T04:58:58.848Z,21.00
2018-07-27T05:04:02.114Z,21.10
2018-07-27T05:09:04.664Z,21.10
2018-07-27T05:14:07.136Z,21.20
2018-07-27T05:19:09.625Z,21.30
2018-07-27T05:24:12.104Z,21.30
2018-07-27T05:29:14.584Z,21.40
2018-07-27T05:34:17.163Z,21.60
2018-07-27T05:39:19.620Z,21.70
2018-07-27T05:44:22.107Z,21.80
2018-07-27T05:49:24.592Z,22.10
2018-07-27T05:54:27.073Z,22.30
2018-07-27T05:59:29.565Z,22.50
2018-07-27T06:04:32.038Z,22.70
2018-07-27T06:09:34.526Z,23.00
2018-07-27T06:14:37.070Z,23.30
2018-07-27T06:19:39.527Z,23.50
2018-07-27T06:24:42.010Z,23.80
2018-07-27T06:29:44.492Z,24.20
2018-07-27T06:34:47.000Z,24.50
2018-07-27T06:39:49.481Z,24.80
2018-07-27T06:44:51.964Z,25.10
2018-07-27T06:49:54.445Z,25.40
2018-07-27T06:54:56.924Z,25.70
2018-07-27T07:00:00.186Z,26.40
2018-07-27T07:05:02.673Z,26.30
2018-07-27T07:10:05.160Z,26.70
2018-07-27T07:15:07.644Z,27.00
2018-07-27T07:20:10.135Z,27.10
2018-07-27T07:25:12.630Z,27.20
2018-07-27T07:30:15.101Z,27.40
2018-07-27T07:35:17.584Z,27.60
2018-07-27T07:40:20.066Z,27.80
2018-07-27T07:45:22.552Z,28.00
2018-07-27T07:50:25.033Z,28.30
2018-07-27T07:55:27.516Z,28.60
2018-07-27T08:00:30.013Z,28.80
2018-07-27T08:05:32.488Z,29.10
2018-07-27T08:10:35.740Z,29.60
2018-07-27T08:15:38.217Z,29.50
2018-07-27T08:20:40.697Z,29.90
2018-07-27T08:25:43.196Z,30.10
2018-07-27T08:30:45.666Z,30.30
2018-07-27T08:35:48.148Z,30.60
2018-07-27T08:40:50.637Z,30.80
2018-07-27T08:45:53.112Z,31.10
2018-07-27T08:50:55.592Z,31.30
2018-07-27T08:55:58.076Z,31.60
2018-07-27T09:01:00.583Z,31.90
2018-07-27T09:06:03.052Z,32.10
2018-07-27T09:11:05.570Z,32.30
2018-07-27T09:16:08.045Z,32.40
2018-07-27T09:21:10.553Z,32.60
2018-07-27T09:26:13.029Z,32.80
2018-07-27T09:31:15.514Z,33.00
2018-07-27T09:36:17.997Z,33.20
2018-07-27T09:41:20.481Z,33.40
2018-07-27T09:46:22.973Z,33.50
2018-07-27T09:51:25.456Z,33.60
2018-07-27T09:56:27.946Z,33.70
2018-07-27T10:01:30.417Z,33.90
2018-07-27T10:06:32.892Z,34.10
2018-07-27T10:11:35.381Z,34.20
2018-07-27T10:16:37.865Z,34.40
2018-07-27T10:21:40.354Z,34.60
2018-07-27T10:26:42.825Z,34.80
2018-07-27T10:31:45.311Z,34.90
2018-07-27T10:36:47.824Z,35.00
2018-07-27T10:41:50.304Z,35.20
2018-07-27T10:46:52.788Z,35.30
2018-07-27T10:51:55.277Z,35.40
2018-07-27T10:56:57.761Z,35.40
2018-07-27T11:02:00.276Z,35.40
2018-07-27T11:07:02.738Z,35.30
2018-07-27T11:12:05.227Z,35.30
2018-07-27T11:17:08.533Z,35.50
2018-07-27T11:22:10.994Z,35.50
2018-07-27T11:27:13.480Z,35.60
2018-07-27T11:32:15.966Z,35.70
2018-07-27T11:37:18.465Z,35.90
2018-07-27T11:42:20.957Z,36.00
2018-07-27T11:47:23.424Z,36.10
2018-07-27T11:52:25.937Z,36.30
2018-07-27T11:57:28.417Z,36.20
2018-07-27T12:02:31.669Z,36.00
2018-07-27T12:07:34.148Z,35.90
2018-07-27T12:12:36.634Z,35.70
2018-07-27T12:17:39.119Z,35.50
2018-07-27T12:22:41.609Z,35.20
2018-07-27T12:27:44.861Z,34.60
2018-07-27T12:32:47.386Z,34.60
2018-07-27T12:37:49.824Z,34.30
2018-07-27T12:42:52.327Z,34.10
2018-07-27T12:47:55.568Z,33.70
2018-07-27T12:52:58.048Z,33.70
2018-07-27T12:58:00.534Z,33.60
2018-07-27T13:03:03.789Z,33.40
2018-07-27T13:08:06.277Z,33.40
2018-07-27T13:13:08.807Z,33.20
2018-07-27T13:18:11.265Z,33.20
2018-07-27T13:23:13.740Z,33.10
2018-07-27T13:28:16.238Z,33.20
2018-07-27T13:33:18.730Z,33.30
2018-07-27T13:38:21.238Z,33.40
2018-07-27T13:43:23.708Z,33.50
2018-07-27T13:48:26.241Z,33.60
2018-07-27T13:53:28.720Z,33.70
2018-07-27T13:58:32.039Z,33.90
2018-07-27T14:03:34.497Z,33.90
2018-07-27T14:08:36.990Z,34.00
2018-07-27T14:13:39.472Z,34.10
2018-07-27T14:18:41.952Z,34.20
2018-07-27T14:23:44.442Z,34.20
2018-07-27T14:28:46.921Z,34.40
2018-07-27T14:33:49.400Z,34.40
2018-07-27T14:38:51.881Z,34.30
2018-07-27T14:43:54.379Z,34.40
2018-07-27T14:48:56.850Z,34.40
2018-07-27T14:53:59.333Z,34.30
2018-07-27T14:59:01.812Z,34.30
2018-07-27T15:04:05.069Z,34.30
2018-07-27T15:09:07.549Z,34.30
2018-07-27T15:14:10.028Z,34.30
2018-07-27T15:19:12.512Z,34.10
2018-07-27T15:24:15.007Z,34.00
2018-07-27T15:29:17.486Z,33.90
2018-07-27T15:34:20.009Z,33.70
2018-07-27T15:39:22.468Z,33.50
2018-07-27T15:44:24.969Z,33.40
2018-07-27T15:49:27.449Z,33.20
2018-07-27T15:54:29.944Z,33.00
2018-07-27T15:59:32.404Z,32.80
2018-07-27T16:04:34.922Z,32.70
2018-07-27T16:09:37.418Z,32.50
2018-07-27T16:14:39.897Z,32.40
2018-07-27T16:19:42.383Z,32.20
2018-07-27T16:24:45.645Z,31.90
2018-07-27T16:29:48.142Z,31.90
2018-07-27T16:34:50.625Z,31.90
2018-07-27T16:39:53.104Z,31.90
2018-07-27T16:44:55.623Z,31.80
2018-07-27T16:49:58.118Z,31.80
2018-07-27T16:55:00.613Z,31.70
2018-07-27T17:00:03.106Z,31.70
2018-07-27T17:05:05.600Z,31.40
2018-07-27T17:10:08.095Z,31.20
2018-07-27T17:15:10.676Z,31.00
2018-07-27T17:20:13.928Z,30.60
2018-07-27T17:25:16.568Z,30.60
2018-07-27T17:30:19.725Z,30.40
2018-07-27T17:35:22.211Z,30.40
2018-07-27T17:40:25.509Z,30.20
2018-07-27T17:45:28.001Z,30.20
2018-07-27T17:50:30.528Z,30.30
2018-07-27T17:55:33.164Z,30.40
2018-07-27T18:00:35.710Z,30.40
2018-07-27T18:05:38.212Z,30.30
2018-07-27T18:15:50.476Z,30.20
2018-07-27T18:20:52.957Z,30.10
2018-07-27T18:25:55.444Z,30.00
2018-07-27T18:30:57.937Z,29.90
2018-07-27T18:36:00.473Z,29.80
2018-07-27T18:41:03.781Z,29.60
2018-07-27T18:46:06.281Z,29.60
2018-07-27T18:51:08.769Z,29.50
2018-07-27T18:56:11.288Z,29.40
2018-07-27T19:01:14.517Z,29.10
2018-07-27T19:06:16.992Z,29.10
2018-07-27T19:11:19.478Z,29.00
2018-07-27T19:16:23.527Z,28.80
2018-07-27T19:21:26.639Z,28.70
2018-07-27T19:26:29.884Z,28.50
2018-07-27T19:31:32.440Z,28.50
2018-07-27T19:36:35.744Z,28.20
2018-07-27T19:41:38.202Z,28.20
2018-07-27T19:46:41.348Z,28.10
2018-07-27T19:51:43.844Z,27.90
2018-07-27T19:56:46.316Z,27.80
2018-07-27T20:01:49.357Z,27.70
2018-07-27T20:06:51.862Z,27.50
2018-07-27T20:11:55.108Z,27.20
2018-07-27T20:16:57.600Z,27.20
2018-07-27T20:22:00.185Z,27.10
2018-07-27T20:27:02.679Z,26.90
2018-07-27T20:32:05.149Z,26.80
2018-07-27T20:37:07.672Z,26.70
2018-07-27T20:42:10.170Z,26.60
2018-07-27T20:47:12.625Z,26.40
2018-07-27T20:52:15.113Z,26.30
2018-07-27T20:57:17.599Z,26.20
2018-07-27T21:02:20.076Z,26.00
2018-07-27T21:07:22.677Z,25.90
2018-07-27T21:12:25.161Z,25.80
2018-07-27T21:17:27.655Z,25.70
2018-07-27T21:22:30.154Z,25.60
2018-07-27T21:27:32.655Z,25.40
2018-07-27T21:32:35.129Z,25.40
2018-07-27T21:37:37.649Z,25.20
2018-07-27T21:42:40.113Z,25.20
2018-07-27T21:47:42.601Z,25.00
2018-07-27T21:52:45.081Z,25.00
2018-07-27T21:57:47.621Z,24.80
2018-07-27T22:02:50.135Z,24.70
2018-07-27T22:07:52.633Z,24.60
2018-07-27T22:12:55.101Z,24.50
2018-07-27T22:17:57.598Z,24.40
2018-07-27T22:23:00.081Z,24.30
2018-07-27T22:28:02.561Z,24.30
2018-07-27T22:33:05.045Z,24.20
2018-07-27T22:38:07.540Z,24.00
2018-07-27T22:43:10.030Z,24.00
2018-07-27T22:48:12.541Z,23.90
2018-07-27T22:53:15.025Z,23.80
2018-07-27T22:58:17.579Z,23.70
2018-07-27T23:03:20.280Z,23.70
2018-07-27T23:08:22.808Z,23.60
2018-07-27T23:13:25.265Z,23.50
2018-07-27T23:18:27.752Z,23.40
2018-07-27T23:23:30.244Z,23.30
2018-07-27T23:28:32.729Z,23.30
2018-07-27T23:33:35.221Z,23.20
2018-07-27T23:38:37.701Z,23.10
2018-07-27T23:43:40.964Z,23.00
2018-07-27T23:48:43.441Z,22.90
2018-07-27T23:53:45.933Z,22.90
2018-07-27T23:58:48.425Z,22.80
